Ciudad Del Este, Paraguay

8:48 AM PYST on February 27, 2015 (GMT -0300)
Guarani International | Change Station
CLOSE
Current Station
Airport
Location: Ciudad del Este,
Elevation: 2785 ft
Nearby Weather Stations

Elev 2785 ft 25.46 °S, 54.84 °W | Updated 18 minutes ago

Mostly Cloudy
Mostly Cloudy
79 °F
Feels Like 79 °F
N
0
Wind Variable Wind from North

Today
High -- | Low -- °F
--% Chance of Precip.
Yesterday
High -- | Low -- °F
Precip. -- in
6:32 AM 7:11 PM
Waxing Gibbous, 68% visible
Pressure 29.89 in
Visibility 5.6 miles
Clouds Few 3000 ft
Mostly Cloudy 8000 ft
Dew Point 75 °F
Humidity 89%
Rainfall 0.00 in
Snow Depth Not available.
UV 2 out of 12
Pollen Not available.
Air Quality Not available.
Flu Activity Not available.
METAR SGES 271130Z 00000KT 9000 FEW030 BKN080 26/24 Q1012

More Conditions Fewer Conditions

Pressure 29.89 in
Visibility 5.6 miles
Clouds Few 3000 ft
Mostly Cloudy 8000 ft
Dew Point 75 °F
Humidity 89%
Rainfall 0.00 in
Snow Depth Not available.
UV 2 out of 12
Pollen Not available.
Air Quality Not available.
Flu Activity Not available.
METAR SGES 271130Z 00000KT 9000 FEW030 BKN080 26/24 Q1012

More Conditions Fewer Conditions

10-Day Weather Forecast

Almanac

Astronomy

Feb. 27, 2015 Rise Set
Actual Time
Civil Twilight
Nautical Twilight
Astronomical Twilight
Moon
Length of Visible Light
Length of Day
Tomorrow will be .
, % of the Moon is Illuminated

Today's Extremes

Country Highs Country Lows

Community

WunderPhotos

Upload Photos

1,800,656 photos uploaded!

WunderBlogs® & News

Nearby

Air Quality

  Air Quality AQ Index Pollutant
Not available.

Snow Depth

Station Depth Elevation

Earthquake Activity

City Distance Mag. Time & Date
Minimum magnitude displayed is 2.5.

Coastal Water Temperatures

Place Temperature

Nearby Weather Stations